createdAt,value
2019-04-16T00:01:14.008Z,45.50
2019-04-16T00:03:47.772Z,47.53
2019-04-16T00:06:42.734Z,49.90
2019-04-16T00:09:30.198Z,47.65
2019-04-16T00:12:22.178Z,50.40
2019-04-16T00:14:55.427Z,46.35
2019-04-16T00:17:29.036Z,48.78
2019-04-16T00:20:05.672Z,51.92
2019-04-16T00:22:45.649Z,52.43
2019-04-16T00:25:18.942Z,49.85
2019-04-16T00:27:52.752Z,50.48
2019-04-16T00:30:25.531Z,51.95
2019-04-16T00:32:59.385Z,60.73
2019-04-16T00:35:33.141Z,61.15
2019-04-16T00:38:06.367Z,58.65
2019-04-16T00:40:39.676Z,49.40
2019-04-16T00:43:13.067Z,49.83
2019-04-16T00:45:46.419Z,51.85
2019-04-16T00:48:20.300Z,43.50
2019-04-16T00:50:54.139Z,51.80
2019-04-16T00:53:28.883Z,50.98
2019-04-16T00:56:02.225Z,43.25
2019-04-16T00:58:35.606Z,45.70
2019-04-16T01:01:09.370Z,51.00
2019-04-16T01:03:42.578Z,48.83
2019-04-16T01:06:16.541Z,43.25
2019-04-16T01:08:54.885Z,43.90
2019-04-16T01:11:25.323Z,48.13
2019-04-16T01:13:58.669Z,43.75
2019-04-16T01:16:33.010Z,45.17
2019-04-16T01:19:09.706Z,45.88
2019-04-16T01:21:44.629Z,39.53
2019-04-16T01:24:17.577Z,42.83
2019-04-16T01:26:52.107Z,41.63
2019-04-16T01:29:25.990Z,46.77
2019-04-16T01:32:12.133Z,49.60
2019-04-16T01:35:18.639Z,51.15
2019-04-16T01:38:06.795Z,48.65
2019-04-16T01:40:50.157Z,51.77
2019-04-16T01:43:25.868Z,52.83
2019-04-16T01:46:01.468Z,55.85
2019-04-16T01:48:38.688Z,61.00
2019-04-16T01:51:12.657Z,65.87
2019-04-16T01:53:45.168Z,67.62
2019-04-16T01:56:18.604Z,66.97
2019-04-16T01:58:52.817Z,54.70
2019-04-16T02:01:26.694Z,58.25
2019-04-16T02:04:00.974Z,54.75
2019-04-16T02:06:34.842Z,54.93
2019-04-16T02:09:21.931Z,53.48
2019-04-16T02:11:43.498Z,51.20
2019-04-16T02:14:17.971Z,53.55
2019-04-16T02:16:55.693Z,47.93
2019-04-16T02:19:27.428Z,47.90
2019-04-16T02:22:00.793Z,52.53
2019-04-16T02:24:34.122Z,48.23
2019-04-16T02:27:08.040Z,46.55
2019-04-16T02:29:41.729Z,47.85
2019-04-16T02:32:15.058Z,52.93
2019-04-16T02:34:48.833Z,49.75
2019-04-16T02:37:21.734Z,49.70
2019-04-16T02:39:55.429Z,49.98
2019-04-16T02:42:31.945Z,49.75
2019-04-16T02:45:03.882Z,43.40
2019-04-16T02:47:41.986Z,49.38
2019-04-16T02:50:17.910Z,49.98
2019-04-16T02:53:09.987Z,53.15
2019-04-16T02:56:00.662Z,46.98
2019-04-16T02:58:38.819Z,43.20
2019-04-16T03:01:33.693Z,45.48
2019-04-16T03:04:11.083Z,48.28
2019-04-16T03:06:44.890Z,48.20
2019-04-16T03:09:18.158Z,46.92
2019-04-16T03:11:52.378Z,51.15
2019-04-16T03:14:29.717Z,46.23
2019-04-16T03:17:28.998Z,55.15
2019-04-16T03:20:04.622Z,53.63
2019-04-16T03:22:38.494Z,58.85
2019-04-16T03:25:14.100Z,55.48
2019-04-16T03:27:47.434Z,52.62
2019-04-16T03:30:21.272Z,52.38
2019-04-16T03:32:54.678Z,49.95
2019-04-16T03:35:28.918Z,55.08
2019-04-16T03:38:04.973Z,55.40
2019-04-16T03:40:38.177Z,50.88
2019-04-16T03:43:11.854Z,58.63
2019-04-16T03:45:46.268Z,57.75
2019-04-16T03:48:20.655Z,60.45
2019-04-16T03:50:54.899Z,59.18
2019-04-16T03:53:28.226Z,105.32
2019-04-16T03:56:01.487Z,134.45
2019-04-16T03:58:35.563Z,138.07
2019-04-16T04:01:09.749Z,134.67
2019-04-16T04:03:43.654Z,113.15
2019-04-16T04:06:17.343Z,118.80
2019-04-16T04:08:53.100Z,101.38
2019-04-16T04:11:25.715Z,85.10
2019-04-16T04:13:59.049Z,82.88
2019-04-16T04:16:33.619Z,74.55
2019-04-16T04:19:08.013Z,81.20
2019-04-16T04:21:42.149Z,83.22
2019-04-16T04:24:15.920Z,78.00
2019-04-16T04:26:50.264Z,77.25
2019-04-16T04:29:24.922Z,65.72
2019-04-16T04:32:03.131Z,68.62
2019-04-16T04:34:33.959Z,72.15
2019-04-16T04:37:07.251Z,68.12
2019-04-16T04:39:44.053Z,62.65
2019-04-16T04:42:18.919Z,63.78
2019-04-16T04:44:52.002Z,63.80
2019-04-16T04:47:26.049Z,63.98
2019-04-16T04:50:03.326Z,51.40
2019-04-16T04:52:34.174Z,58.10
2019-04-16T04:55:07.940Z,60.20
2019-04-16T04:57:41.247Z,58.63
2019-04-16T05:00:15.939Z,61.83
2019-04-16T05:02:48.895Z,59.18
2019-04-16T05:05:31.721Z,56.28
2019-04-16T05:08:04.208Z,64.22
2019-04-16T05:10:42.768Z,57.05
2019-04-16T05:13:12.751Z,57.80
2019-04-16T05:15:46.487Z,63.35
2019-04-16T05:18:19.381Z,59.65
2019-04-16T05:20:53.311Z,61.13
2019-04-16T05:23:26.786Z,56.95
2019-04-16T05:26:04.508Z,65.25
2019-04-16T05:28:36.755Z,58.05
2019-04-16T05:31:10.454Z,53.98
2019-04-16T05:33:44.175Z,58.38
2019-04-16T05:36:17.094Z,64.72
2019-04-16T05:38:55.442Z,56.20
2019-04-16T05:41:25.927Z,53.10
2019-04-16T05:44:01.742Z,56.73
2019-04-16T05:46:33.469Z,60.83
2019-04-16T05:49:06.890Z,58.42
2019-04-16T05:51:40.257Z,65.72
2019-04-16T05:54:35.503Z,58.13
2019-04-16T05:57:09.713Z,67.60
2019-04-16T05:59:43.478Z,53.38
2019-04-16T06:02:22.401Z,58.50
2019-04-16T06:04:55.971Z,59.58
2019-04-16T06:07:30.177Z,56.05
2019-04-16T06:10:06.814Z,57.20
2019-04-16T06:13:05.072Z,56.37
2019-04-16T06:15:56.074Z,62.25
2019-04-16T06:18:47.685Z,57.95
2019-04-16T06:21:50.769Z,53.68
2019-04-16T06:24:45.104Z,53.92
2019-04-16T06:27:54.839Z,52.30
2019-04-16T06:30:47.430Z,54.90
2019-04-16T06:33:31.730Z,50.98
2019-04-16T06:36:22.016Z,58.55
2019-04-16T06:39:10.914Z,53.40
2019-04-16T06:42:08.771Z,53.25
2019-04-16T06:44:49.335Z,51.50
2019-04-16T06:47:41.772Z,50.48
2019-04-16T06:50:39.695Z,50.38
2019-04-16T06:53:30.064Z,49.50
2019-04-16T06:56:25.918Z,54.48
2019-04-16T06:59:07.905Z,47.15
2019-04-16T07:02:02.291Z,40.50
2019-04-16T07:04:43.781Z,38.23
2019-04-16T07:07:39.647Z,45.00
2019-04-16T07:10:07.774Z,34.10
2019-04-16T07:12:40.726Z,34.67
2019-04-16T07:15:15.597Z,34.88
2019-04-16T07:17:49.487Z,31.73
2019-04-16T07:20:23.305Z,35.78
2019-04-16T07:22:57.141Z,29.40
2019-04-16T07:25:31.526Z,22.45
2019-04-16T07:28:25.097Z,23.00
2019-04-16T07:31:16.573Z,22.52
2019-04-16T07:34:04.713Z,22.58
2019-04-16T07:37:00.472Z,21.00
2019-04-16T07:39:53.062Z,23.20
2019-04-16T07:42:51.999Z,23.75
2019-04-16T07:45:37.594Z,23.98
2019-04-16T07:48:22.554Z,25.45
2019-04-16T07:51:15.952Z,23.73
2019-04-16T07:54:11.492Z,20.08
2019-04-16T07:56:47.724Z,23.67
2019-04-16T07:59:21.960Z,17.32
2019-04-16T08:01:56.187Z,19.30
2019-04-16T08:04:35.403Z,18.85
2019-04-16T08:07:05.980Z,16.30
2019-04-16T08:09:38.829Z,17.52
2019-04-16T08:12:29.417Z,19.85
2019-04-16T08:14:48.393Z,13.55
2019-04-16T08:17:22.586Z,20.88
2019-04-16T08:19:56.387Z,13.72
2019-04-16T08:22:29.768Z,12.43
2019-04-16T08:25:04.658Z,13.55
2019-04-16T08:27:38.090Z,12.33
2019-04-16T08:30:13.859Z,17.70
2019-04-16T08:32:48.924Z,12.50
2019-04-16T08:35:23.436Z,10.98
2019-04-16T08:37:58.817Z,11.35
2019-04-16T08:40:32.914Z,13.62
2019-04-16T08:43:07.436Z,11.45
2019-04-16T08:45:41.723Z,13.43
2019-04-16T08:48:18.460Z,11.40
2019-04-16T08:50:50.975Z,13.10
2019-04-16T08:53:24.366Z,11.68
2019-04-16T08:55:58.652Z,12.60
2019-04-16T08:58:31.515Z,31.45
2019-04-16T09:01:05.657Z,9.43
2019-04-16T09:03:40.873Z,10.23
2019-04-16T09:06:15.070Z,9.60
2019-04-16T09:09:14.177Z,9.23
2019-04-16T09:11:43.548Z,15.25
2019-04-16T09:14:20.958Z,13.40
2019-04-16T09:17:26.110Z,12.47
2019-04-16T09:20:23.114Z,16.05
2019-04-16T09:22:58.766Z,10.38
2019-04-16T09:25:52.949Z,13.50
2019-04-16T09:29:08.534Z,11.03
2019-04-16T09:31:57.057Z,11.85
2019-04-16T09:34:40.973Z,13.13
2019-04-16T09:37:35.669Z,12.88
2019-04-16T09:40:20.143Z,12.30
2019-04-16T09:42:53.767Z,11.38
2019-04-16T09:45:27.724Z,14.83
2019-04-16T09:48:03.525Z,12.45
2019-04-16T09:50:42.973Z,13.93
2019-04-16T09:53:12.370Z,11.85
2019-04-16T09:55:47.505Z,15.13
2019-04-16T09:58:22.876Z,10.63
2019-04-16T10:01:06.680Z,10.30
2019-04-16T10:03:42.110Z,12.95
2019-04-16T10:06:15.911Z,11.33
2019-04-16T10:08:49.058Z,11.20
2019-04-16T10:11:23.053Z,11.43
2019-04-16T10:13:56.922Z,10.90
2019-04-16T10:16:31.092Z,10.75
2019-04-16T10:19:07.634Z,15.35
2019-04-16T10:21:39.108Z,12.43
2019-04-16T10:24:29.254Z,9.45
2019-04-16T10:27:04.444Z,11.93
2019-04-16T10:29:38.962Z,9.40
2019-04-16T10:32:13.291Z,12.15
2019-04-16T10:34:47.176Z,12.80
2019-04-16T10:37:21.191Z,9.08
2019-04-16T10:40:26.006Z,12.35
2019-04-16T10:43:24.079Z,10.80
2019-04-16T10:46:11.916Z,11.22
2019-04-16T10:48:53.539Z,10.60
2019-04-16T10:51:45.725Z,9.13
2019-04-16T10:54:40.563Z,11.60
2019-04-16T10:57:32.069Z,11.00
2019-04-16T11:00:34.439Z,10.00
2019-04-16T11:03:13.757Z,11.73
2019-04-16T11:06:02.440Z,10.70
2019-04-16T11:08:35.465Z,11.53
2019-04-16T11:11:09.448Z,13.70
2019-04-16T11:13:59.197Z,9.98
2019-04-16T11:16:21.690Z,9.20
2019-04-16T11:18:55.478Z,10.00
2019-04-16T11:21:28.826Z,13.80
2019-04-16T11:24:01.648Z,16.15
2019-04-16T11:26:35.922Z,11.65
2019-04-16T11:29:09.209Z,9.45
2019-04-16T11:31:42.534Z,12.85
2019-04-16T11:34:15.483Z,9.63
2019-04-16T11:36:48.796Z,9.78
2019-04-16T11:39:22.577Z,11.15
2019-04-16T11:41:56.796Z,12.00
2019-04-16T11:44:30.971Z,10.55
2019-04-16T11:47:05.697Z,11.35
2019-04-16T11:49:38.538Z,12.65
2019-04-16T11:52:12.358Z,12.58
2019-04-16T11:54:47.758Z,9.80
2019-04-16T11:57:21.645Z,8.33
2019-04-16T12:00:06.415Z,10.25
2019-04-16T12:02:46.926Z,7.95
2019-04-16T12:05:26.035Z,8.58
2019-04-16T12:08:16.447Z,10.78
2019-04-16T12:11:26.586Z,8.05
2019-04-16T12:14:30.764Z,8.58
2019-04-16T12:17:15.126Z,9.38
2019-04-16T12:19:57.213Z,11.55
2019-04-16T12:22:49.190Z,8.05
2019-04-16T12:25:38.333Z,9.65
2019-04-16T12:28:20.984Z,9.30
2019-04-16T12:31:16.083Z,10.50
2019-04-16T12:34:04.572Z,10.45
2019-04-16T12:36:51.875Z,6.78
2019-04-16T12:39:41.774Z,10.10
2019-04-16T12:42:42.587Z,6.53
2019-04-16T12:45:32.939Z,7.50
2019-04-16T12:48:25.366Z,5.62
2019-04-16T12:51:10.645Z,5.05
2019-04-16T12:54:01.278Z,7.20
2019-04-16T12:57:02.071Z,7.95
2019-04-16T12:59:57.498Z,8.63
2019-04-16T13:02:49.634Z,7.45
2019-04-16T13:05:32.643Z,7.30
2019-04-16T13:08:30.922Z,6.83
2019-04-16T13:11:21.825Z,11.12
2019-04-16T13:14:14.086Z,9.08
2019-04-16T13:17:01.634Z,8.68
2019-04-16T13:20:00.055Z,9.30
2019-04-16T13:22:39.735Z,8.78
2019-04-16T13:25:19.902Z,6.85
2019-04-16T13:27:59.215Z,5.08
2019-04-16T13:30:32.790Z,6.87
2019-04-16T13:33:06.270Z,7.00
2019-04-16T13:35:39.491Z,8.00
2019-04-16T13:38:14.714Z,9.10
2019-04-16T13:40:50.145Z,6.17
2019-04-16T13:43:27.259Z,5.20
2019-04-16T13:46:01.246Z,5.55
2019-04-16T13:48:44.184Z,8.23
2019-04-16T13:51:19.713Z,6.95
2019-04-16T13:54:00.371Z,9.00
2019-04-16T13:56:43.127Z,9.03
2019-04-16T13:59:34.478Z,7.85
2019-04-16T14:02:21.767Z,11.10
2019-04-16T14:05:03.180Z,5.97
2019-04-16T14:07:32.874Z,6.33
2019-04-16T14:10:06.333Z,7.85
2019-04-16T14:12:42.868Z,5.90
2019-04-16T14:15:14.987Z,6.53
2019-04-16T14:17:52.797Z,8.08
2019-04-16T14:20:23.398Z,8.85
2019-04-16T14:22:56.902Z,4.87
2019-04-16T14:25:30.430Z,6.33
2019-04-16T14:28:04.262Z,8.15
2019-04-16T14:30:42.827Z,9.65
2019-04-16T14:33:23.039Z,7.72
2019-04-16T14:35:57.930Z,8.33
2019-04-16T14:38:43.497Z,8.20
2019-04-16T14:41:16.477Z,7.75
2019-04-16T14:43:54.408Z,7.47
2019-04-16T14:46:29.124Z,9.40
2019-04-16T14:49:02.534Z,11.75
2019-04-16T14:51:35.597Z,11.78
2019-04-16T14:54:30.917Z,8.60
2019-04-16T14:57:04.064Z,9.50
2019-04-16T14:59:59.190Z,12.43
2019-04-16T15:02:40.346Z,10.63
2019-04-16T15:05:31.593Z,8.60
2019-04-16T15:08:22.347Z,11.85
2019-04-16T15:11:12.348Z,16.50
2019-04-16T15:14:03.260Z,9.88
2019-04-16T15:16:43.109Z,12.25
2019-04-16T15:19:32.375Z,12.40
2019-04-16T15:22:21.421Z,11.08
2019-04-16T15:25:08.647Z,12.28
2019-04-16T15:27:49.679Z,14.40
2019-04-16T15:30:45.405Z,11.48
2019-04-16T15:33:38.958Z,12.18
2019-04-16T15:36:19.437Z,11.40
2019-04-16T15:39:09.051Z,13.45
2019-04-16T15:41:59.753Z,13.10
2019-04-16T15:44:52.685Z,16.12
2019-04-16T15:47:46.977Z,29.82
2019-04-16T15:50:38.531Z,12.37
2019-04-16T15:53:36.610Z,11.50
2019-04-16T15:56:29.254Z,16.57
2019-04-16T15:59:20.775Z,12.15
2019-04-16T16:02:12.489Z,8.85
2019-04-16T16:05:03.599Z,9.28
2019-04-16T16:07:42.632Z,10.20
2019-04-16T16:10:24.547Z,9.50
2019-04-16T16:12:57.031Z,8.40
2019-04-16T16:15:30.322Z,11.45
2019-04-16T16:18:03.026Z,9.15
2019-04-16T16:20:36.432Z,10.75
2019-04-16T16:23:09.285Z,12.50
2019-04-16T16:25:42.185Z,12.13
2019-04-16T16:28:15.437Z,12.53
2019-04-16T16:30:48.428Z,15.13
2019-04-16T16:33:21.704Z,11.57
2019-04-16T16:35:58.780Z,12.43
2019-04-16T16:38:30.155Z,18.23
2019-04-16T16:41:03.859Z,16.95
2019-04-16T16:43:37.455Z,12.47
2019-04-16T16:46:32.164Z,9.90
2019-04-16T16:49:05.193Z,11.73
2019-04-16T16:51:40.588Z,13.60
2019-04-16T16:54:20.583Z,10.18
2019-04-16T16:57:14.314Z,10.48
2019-04-16T16:59:57.952Z,12.43
2019-04-16T17:02:49.792Z,13.13
2019-04-16T17:05:34.335Z,11.40
2019-04-16T17:08:06.385Z,11.73
2019-04-16T17:10:42.263Z,11.33
2019-04-16T17:13:15.731Z,16.20
2019-04-16T17:15:49.364Z,22.73
2019-04-16T17:18:22.217Z,16.87
2019-04-16T17:20:55.858Z,15.32
2019-04-16T17:23:27.580Z,15.05
2019-04-16T17:26:00.503Z,19.12
2019-04-16T17:28:33.159Z,25.37
2019-04-16T17:31:05.917Z,21.55
2019-04-16T17:33:39.738Z,21.77
2019-04-16T17:36:12.632Z,20.85
2019-04-16T17:38:45.471Z,17.12
2019-04-16T17:41:23.652Z,21.00
2019-04-16T17:44:11.849Z,28.12
2019-04-16T17:46:56.656Z,23.98
2019-04-16T17:49:52.902Z,14.80
2019-04-16T17:52:29.450Z,15.65
2019-04-16T17:55:17.424Z,14.33
2019-04-16T17:57:55.836Z,23.12
2019-04-16T18:00:50.471Z,18.62
2019-04-16T18:03:44.325Z,26.37
2019-04-16T18:06:51.255Z,31.33
2019-04-16T18:09:48.921Z,40.10
2019-04-16T18:12:50.716Z,30.62
2019-04-16T18:15:43.464Z,30.17
2019-04-16T18:18:40.764Z,23.95
2019-04-16T18:21:23.531Z,26.65
2019-04-16T18:24:15.554Z,21.00
2019-04-16T18:27:06.051Z,20.72
2019-04-16T18:30:05.150Z,24.92
2019-04-16T18:32:53.182Z,21.62
2019-04-16T18:35:32.082Z,21.48
2019-04-16T18:38:23.017Z,22.70
2019-04-16T18:41:27.475Z,30.00
2019-04-16T18:44:31.816Z,28.62
2019-04-16T18:47:15.723Z,34.67
2019-04-16T18:49:49.063Z,19.98
2019-04-16T18:52:21.593Z,20.35
2019-04-16T18:54:54.595Z,17.62
2019-04-16T18:57:27.695Z,25.90
2019-04-16T19:00:00.281Z,18.32
2019-04-16T19:02:33.942Z,18.50
2019-04-16T19:05:06.984Z,17.12
2019-04-16T19:07:39.529Z,18.25
2019-04-16T19:10:15.133Z,19.35
2019-04-16T19:12:47.984Z,16.70
2019-04-16T19:15:21.520Z,19.80
2019-04-16T19:17:55.527Z,16.57
2019-04-16T19:20:28.685Z,20.45
2019-04-16T19:23:03.300Z,19.90
2019-04-16T19:25:36.314Z,21.07
2019-04-16T19:28:10.830Z,21.97
2019-04-16T19:30:47.168Z,27.00
2019-04-16T19:33:20.591Z,28.27
2019-04-16T19:35:55.466Z,22.70
2019-04-16T19:38:29.681Z,19.77
2019-04-16T19:41:03.349Z,19.57
2019-04-16T19:43:36.809Z,20.90
2019-04-16T19:46:09.676Z,28.32
2019-04-16T19:48:43.345Z,34.63
2019-04-16T19:51:19.638Z,29.25
2019-04-16T19:53:52.114Z,31.75
2019-04-16T19:56:25.946Z,24.07
2019-04-16T19:59:00.271Z,20.15
2019-04-16T20:01:33.777Z,22.55
2019-04-16T20:04:10.656Z,18.87
2019-04-16T20:06:41.161Z,21.73
2019-04-16T20:09:14.533Z,17.12
2019-04-16T20:11:47.842Z,21.17
2019-04-16T20:14:21.433Z,32.80
2019-04-16T20:16:53.615Z,28.70
2019-04-16T20:19:27.858Z,23.32
2019-04-16T20:22:02.043Z,25.02
2019-04-16T20:24:36.556Z,22.65
2019-04-16T20:27:09.458Z,25.57
2019-04-16T20:29:42.265Z,19.67
2019-04-16T20:32:15.607Z,20.68
2019-04-16T20:34:48.941Z,20.80
2019-04-16T20:37:21.553Z,15.98
2019-04-16T20:39:54.190Z,16.90
2019-04-16T20:42:27.164Z,21.45
2019-04-16T20:45:00.125Z,17.25
2019-04-16T20:47:57.717Z,18.48
2019-04-16T20:50:31.445Z,15.83
2019-04-16T20:53:07.377Z,17.55
2019-04-16T20:55:39.102Z,17.80
2019-04-16T20:58:15.342Z,18.35
2019-04-16T21:00:53.835Z,16.10
2019-04-16T21:03:30.883Z,21.42
2019-04-16T21:06:01.197Z,21.57
2019-04-16T21:08:34.576Z,16.75
2019-04-16T21:11:09.293Z,24.02
2019-04-16T21:13:41.784Z,18.73
2019-04-16T21:16:14.748Z,21.07
2019-04-16T21:18:48.456Z,21.45
2019-04-16T21:21:23.420Z,19.23
2019-04-16T21:23:57.446Z,16.80
2019-04-16T21:26:30.983Z,21.02
2019-04-16T21:29:34.357Z,18.00
2019-04-16T21:32:10.210Z,18.55
2019-04-16T21:34:58.600Z,16.27
2019-04-16T21:37:53.732Z,19.67
2019-04-16T21:40:27.431Z,16.10
2019-04-16T21:43:06.797Z,13.58
2019-04-16T21:45:36.093Z,17.15
2019-04-16T21:48:12.313Z,16.10
2019-04-16T21:50:44.558Z,16.67
2019-04-16T21:53:19.328Z,16.67
2019-04-16T21:55:53.542Z,15.95
2019-04-16T21:58:26.374Z,13.75
2019-04-16T22:01:22.193Z,16.20
2019-04-16T22:04:00.969Z,14.28
2019-04-16T22:06:35.361Z,15.32
2019-04-16T22:09:09.947Z,15.88
2019-04-16T22:11:44.441Z,15.25
2019-04-16T22:14:21.952Z,15.75
2019-04-16T22:16:53.342Z,15.23
2019-04-16T22:19:26.716Z,15.93
2019-04-16T22:22:00.010Z,16.45
2019-04-16T22:24:33.986Z,15.18
2019-04-16T22:27:08.569Z,17.10
2019-04-16T22:29:47.248Z,16.20
2019-04-16T22:32:16.637Z,13.78
2019-04-16T22:34:50.729Z,14.40
2019-04-16T22:37:24.196Z,15.13
2019-04-16T22:40:08.952Z,16.00
2019-04-16T22:43:11.024Z,14.93
2019-04-16T22:45:52.209Z,13.80
2019-04-16T22:48:25.345Z,12.30
2019-04-16T22:50:58.533Z,14.83
2019-04-16T22:53:31.828Z,17.73
2019-04-16T22:56:04.773Z,16.20
2019-04-16T22:58:51.058Z,15.90
2019-04-16T23:01:26.284Z,16.27
2019-04-16T23:03:59.467Z,16.95
2019-04-16T23:06:37.822Z,22.75
2019-04-16T23:09:16.740Z,23.98
2019-04-16T23:11:48.489Z,25.88
2019-04-16T23:14:22.225Z,23.75
2019-04-16T23:16:56.272Z,22.75
2019-04-16T23:19:29.578Z,21.62
2019-04-16T23:22:02.698Z,19.90
2019-04-16T23:24:36.258Z,24.85
2019-04-16T23:27:11.330Z,22.30
2019-04-16T23:29:47.435Z,23.27
2019-04-16T23:32:20.301Z,21.27
2019-04-16T23:34:53.579Z,27.10
2019-04-16T23:37:27.790Z,22.98
2019-04-16T23:40:01.650Z,23.40
2019-04-16T23:42:36.744Z,23.73
2019-04-16T23:45:31.404Z,23.05
2019-04-16T23:48:15.699Z,23.45
2019-04-16T23:51:13.712Z,20.23
2019-04-16T23:53:50.929Z,24.80
2019-04-16T23:56:49.707Z,29.90
2019-04-16T23:59:44.407Z,36.33
